Time Latitude Longitude Accuracy (66% radius in meters) Altitude (meters) Speed (km/hour) Bearing (degrees) Battery (%) GPS flag
15:30:44 3.554642 -76.197542 0 0 0 0 1 delete
15:30:35 3.554617 -76.197526 0 0 0 0 1 delete
15:30:06 3.554646 -76.197551 0 0 0 0 1 delete
15:30:01 3.554650 -76.197521 0 0 0 0 1 delete
15:29:56 3.554655 -76.197494 0 0 0 0 1 delete
15:29:52 3.554676 -76.197474 0 0 0 0 1 delete
15:29:50 3.554698 -76.197451 0 0 0 0 1 delete
15:29:49 3.554720 -76.197432 0 0 0 0 1 delete
15:29:48 3.554754 -76.197429 0 0 0 0 1 delete
15:29:47 3.554781 -76.197408 0 0 0 0 1 delete
15:29:45 3.554802 -76.197384 0 0 0 0 1 delete
15:29:43 3.554822 -76.197365 0 0 0 0 1 delete
15:29:42 3.554849 -76.197355 0 0 0 0 1 delete
15:29:41 3.554873 -76.197342 0 0 0 0 1 delete
15:29:40 3.554900 -76.197324 0 0 0 0 1 delete
15:29:39 3.554928 -76.197308 0 0 0 0 1 delete
15:29:38 3.554956 -76.197291 0 0 0 0 1 delete
15:29:37 3.554982 -76.197276 0 0 0 0 1 delete
15:29:35 3.555031 -76.197257 0 0 0 0 1 delete
15:29:34 3.555064 -76.197241 0 0 0 0 1 delete
15:29:33 3.555091 -76.197229 0 0 0 0 1 delete
15:29:32 3.555125 -76.197213 0 0 0 0 1 delete
15:29:30 3.555174 -76.197198 0 0 0 0 1 delete
15:29:29 3.555207 -76.197184 0 0 0 0 1 delete
15:29:27 3.555247 -76.197162 0 0 0 0 1 delete
15:29:26 3.555281 -76.197150 0 0 0 0 1 delete
15:29:25 3.555315 -76.197144 0 0 0 0 1 delete
15:29:24 3.555363 -76.197132 0 0 0 0 1 delete
15:29:23 3.555399 -76.197123 0 0 0 0 1 delete
15:29:22 3.555444 -76.197125 0 0 0 0 1 delete
15:29:21 3.555491 -76.197124 0 0 0 0 1 delete
15:29:20 3.555528 -76.197105 0 0 0 0 1 delete
15:29:19 3.555554 -76.197090 0 0 0 0 1 delete
15:29:18 3.555593 -76.197082 0 0 0 0 1 delete
15:29:17 3.555629 -76.197077 0 0 0 0 1 delete
15:29:16 3.555672 -76.197064 0 0 0 0 1 delete
15:29:15 3.555713 -76.197054 0 0 0 0 1 delete
15:29:14 3.555756 -76.197049 0 0 0 0 1 delete
15:29:13 3.555804 -76.197046 0 0 0 0 1 delete
15:29:12 3.555856 -76.197045 0 0 0 0 1 delete
15:29:11 3.555906 -76.197044 0 0 0 0 1 delete
15:29:10 3.555954 -76.197047 0 0 0 0 1 delete
15:29:09 3.556002 -76.197054 0 0 0 0 1 delete
15:29:08 3.556049 -76.197067 0 0 0 0 1 delete
15:29:07 3.556092 -76.197085 0 0 0 0 1 delete
15:29:06 3.556137 -76.197107 0 0 0 0 1 delete
15:29:05 3.556162 -76.197121 0 0 0 0 1 delete
15:29:04 3.556184 -76.197137 0 0 0 0 1 delete
15:29:03 3.556217 -76.197174 0 0 0 0 1 delete
15:29:02 3.556238 -76.197198 0 0 0 0 1 delete